PAHX

Details ICAO PAHX (SHX)
Name Shageluk
Region USA (Alaska)
Timezone America/Anchorage (UTC-8.0)
Plans Departing 1
Arriving 1
Stats Elevation 70 ft / 21 m (AMSL)
Location 62.695119° -159.569061°
Runways 1
Magnetic Variation 12.486° E
Sunrise 2018-05-21 13:22:24 UTC / 2018-05-21 05:22:24 Local
Sunset 2018-05-22 07:50:15 UTC / 2018-05-21 23:50:15 Local
Advertisement - Login to hide

Runways

ID Width Length Bearing (true) Bearing (mag) Surface Threshold Offset Overrun Length
16 49 ft / 15 m 2,302 ft / 702 m 180.00° 167.51° Gravel 0 ft / 0 m 0 ft / 0 m
34 49 ft / 15 m 2,302 ft / 702 m 0.00° 347.51° Gravel 0 ft / 0 m 0 ft / 0 m

Map

Weather


0- 5 10 15 20 25 30 35+ Temperature / ° C

Clouds and Precipitation
Forecast for 2018-05-21 12:00 UTC. Updated 37 minutes ago

Ground ~20,000 ft ~40,000 ft Winds

METAR

PAHX 211056Z AUTO 01006KT 10SM BKN075 OVC095 08/06 A2944 RMK AO2 SLP969 T00780061

TAF

Not found
Warning: Do not use this data for real-world aviation or navigation. No guarantee of current accuracy is given.